sensor_id;sensor_type;location;lat;lon;timestamp;pressure;altitude;pressure_sealevel;temperature
48003;BMP280;33768;48.578;11.574;2023-04-24T00:00:04;95565.28;;;11.14
48003;BMP280;33768;48.578;11.574;2023-04-24T00:03:12;95563.28;;;11.15
48003;BMP280;33768;48.578;11.574;2023-04-24T00:06:17;95556.53;;;11.16
48003;BMP280;33768;48.578;11.574;2023-04-24T00:09:21;95557.25;;;11.16
48003;BMP280;33768;48.578;11.574;2023-04-24T00:12:26;95555.06;;;11.15
48003;BMP280;33768;48.578;11.574;2023-04-24T00:15:30;95551.44;;;11.12
48003;BMP280;33768;48.578;11.574;2023-04-24T00:18:35;95548.53;;;11.10
48003;BMP280;33768;48.578;11.574;2023-04-24T00:21:39;95548.19;;;11.06
48003;BMP280;33768;48.578;11.574;2023-04-24T00:24:43;95541.97;;;11.06
48003;BMP280;33768;48.578;11.574;2023-04-24T00:27:47;95540.00;;;11.06
48003;BMP280;33768;48.578;11.574;2023-04-24T00:30:51;95538.72;;;11.00
48003;BMP280;33768;48.578;11.574;2023-04-24T00:33:57;95537.81;;;10.97
48003;BMP280;33768;48.578;11.574;2023-04-24T00:37:01;95535.97;;;11.00
48003;BMP280;33768;48.578;11.574;2023-04-24T00:40:06;95541.25;;;10.98
48003;BMP280;33768;48.578;11.574;2023-04-24T00:43:11;95546.72;;;10.98
48003;BMP280;33768;48.578;11.574;2023-04-24T00:46:16;95540.16;;;10.93
48003;BMP280;33768;48.578;11.574;2023-04-24T00:49:20;95548.91;;;10.92
48003;BMP280;33768;48.578;11.574;2023-04-24T00:52:25;95545.47;;;10.92
48003;BMP280;33768;48.578;11.574;2023-04-24T00:55:30;95552.03;;;10.89
48003;BMP280;33768;48.578;11.574;2023-04-24T00:58:34;95538.91;;;10.87
48003;BMP280;33768;48.578;11.574;2023-04-24T01:01:39;95550.34;;;10.86
48003;BMP280;33768;48.578;11.574;2023-04-24T01:04:46;95541.81;;;10.82
48003;BMP280;33768;48.578;11.574;2023-04-24T01:07:50;95539.63;;;10.80
48003;BMP280;33768;48.578;11.574;2023-04-24T01:10:55;95538.00;;;10.77
48003;BMP280;33768;48.578;11.574;2023-04-24T01:14:01;95539.63;;;10.80
48003;BMP280;33768;48.578;11.574;2023-04-24T01:17:05;95540.16;;;10.93
48003;BMP280;33768;48.578;11.574;2023-04-24T01:20:09;95540.91;;;11.01
48003;BMP280;33768;48.578;11.574;2023-04-24T01:23:14;95547.28;;;11.04
48003;BMP280;33768;48.578;11.574;2023-04-24T01:26:19;95528.50;;;11.00
48003;BMP280;33768;48.578;11.574;2023-04-24T01:29:23;95544.53;;;10.96
48003;BMP280;33768;48.578;11.574;2023-04-24T01:32:27;95540.53;;;10.97
48003;BMP280;33768;48.578;11.574;2023-04-24T01:35:32;95530.53;;;10.93
48003;BMP280;33768;48.578;11.574;2023-04-24T01:38:37;95532.34;;;10.90
48003;BMP280;33768;48.578;11.574;2023-04-24T01:41:40;95536.38;;;10.89
48003;BMP280;33768;48.578;11.574;2023-04-24T01:44:45;95533.97;;;10.86
48003;BMP280;33768;48.578;11.574;2023-04-24T01:47:50;95532.00;;;10.86
48003;BMP280;33768;48.578;11.574;2023-04-24T01:50:56;95537.63;;;10.88
48003;BMP280;33768;48.578;11.574;2023-04-24T01:54:00;95517.97;;;10.90
48003;BMP280;33768;48.578;11.574;2023-04-24T01:57:06;95523.06;;;10.93
48003;BMP280;33768;48.578;11.574;2023-04-24T02:00:11;95515.06;;;10.88
48003;BMP280;33768;48.578;11.574;2023-04-24T02:03:18;95512.34;;;10.80
48003;BMP280;33768;48.578;11.574;2023-04-24T02:06:22;95512.72;;;10.77
48003;BMP280;33768;48.578;11.574;2023-04-24T02:09:27;95497.06;;;10.70
48003;BMP280;33768;48.578;11.574;2023-04-24T02:12:31;95493.63;;;10.62
48003;BMP280;33768;48.578;11.574;2023-04-24T02:15:35;95493.25;;;10.51
48003;BMP280;33768;48.578;11.574;2023-04-24T02:18:41;95489.97;;;10.45
48003;BMP280;33768;48.578;11.574;2023-04-24T02:21:45;95500.88;;;10.45
48003;BMP280;33768;48.578;11.574;2023-04-24T02:24:49;95504.34;;;10.45
48003;BMP280;33768;48.578;11.574;2023-04-24T02:27:53;95494.16;;;10.38
48003;BMP280;33768;48.578;11.574;2023-04-24T02:30:57;95495.09;;;10.33
48003;BMP280;33768;48.578;11.574;2023-04-24T02:34:02;95500.34;;;10.31
48003;BMP280;33768;48.578;11.574;2023-04-24T02:37:07;95495.25;;;10.28
48003;BMP280;33768;48.578;11.574;2023-04-24T02:40:11;95507.97;;;10.26
48003;BMP280;33768;48.578;11.574;2023-04-24T02:43:15;95507.22;;;10.25
48003;BMP280;33768;48.578;11.574;2023-04-24T02:46:20;95513.06;;;10.22
48003;BMP280;33768;48.578;11.574;2023-04-24T02:49:24;95504.88;;;10.22
48003;BMP280;33768;48.578;11.574;2023-04-24T02:52:28;95507.41;;;10.20
48003;BMP280;33768;48.578;11.574;2023-04-24T02:55:32;95504.16;;;10.21
48003;BMP280;33768;48.578;11.574;2023-04-24T02:58:36;95507.41;;;10.20
48003;BMP280;33768;48.578;11.574;2023-04-24T03:01:40;95505.97;;;10.19
48003;BMP280;33768;48.578;11.574;2023-04-24T03:04:44;95511.41;;;10.19
48003;BMP280;33768;48.578;11.574;2023-04-24T03:07:48;95511.03;;;10.15
48003;BMP280;33768;48.578;11.574;2023-04-24T03:10:52;95511.03;;;10.15
48003;BMP280;33768;48.578;11.574;2023-04-24T03:13:57;95512.31;;;10.14
48003;BMP280;33768;48.578;11.574;2023-04-24T03:17:01;95509.22;;;10.10
48003;BMP280;33768;48.578;11.574;2023-04-24T03:20:06;95509.22;;;10.10
48003;BMP280;33768;48.578;11.574;2023-04-24T03:23:11;95511.03;;;10.07
48003;BMP280;33768;48.578;11.574;2023-04-24T03:26:15;95514.50;;;10.08
48003;BMP280;33768;48.578;11.574;2023-04-24T03:29:31;95522.84;;;10.10
48003;BMP280;33768;48.578;11.574;2023-04-24T03:32:35;95511.22;;;10.09
48003;BMP280;33768;48.578;11.574;2023-04-24T03:35:40;95512.47;;;10.01
48003;BMP280;33768;48.578;11.574;2023-04-24T03:38:47;95512.28;;;9.99
48003;BMP280;33768;48.578;11.574;2023-04-24T03:41:57;95516.47;;;10.00
48003;BMP280;33768;48.578;11.574;2023-04-24T03:45:11;95513.72;;;10.00
48003;BMP280;33768;48.578;11.574;2023-04-24T03:48:18;95522.28;;;10.04
48003;BMP280;33768;48.578;11.574;2023-04-24T03:51:22;95517.56;;;10.04
48003;BMP280;33768;48.578;11.574;2023-04-24T03:54:29;95516.84;;;10.04
48003;BMP280;33768;48.578;11.574;2023-04-24T03:57:33;95519.19;;;10.00
48003;BMP280;33768;48.578;11.574;2023-04-24T04:00:49;95511.19;;;10.02
48003;BMP280;33768;48.578;11.574;2023-04-24T04:04:12;95515.94;;;10.01
48003;BMP280;33768;48.578;11.574;2023-04-24T04:07:17;95524.47;;;9.98
48003;BMP280;33768;48.578;11.574;2023-04-24T04:10:21;95516.81;;;9.97
48003;BMP280;33768;48.578;11.574;2023-04-24T04:13:25;95516.28;;;9.98
48003;BMP280;33768;48.578;11.574;2023-04-24T04:16:29;95511.38;;;9.97
48003;BMP280;33768;48.578;11.574;2023-04-24T04:19:39;95521.00;;;9.98
48003;BMP280;33768;48.578;11.574;2023-04-24T04:22:43;95514.81;;;9.97
48003;BMP280;33768;48.578;11.574;2023-04-24T04:25:49;95505.91;;;9.97
48003;BMP280;33768;48.578;11.574;2023-04-24T04:28:55;95512.66;;;9.96
48003;BMP280;33768;48.578;11.574;2023-04-24T04:31:59;95509.38;;;9.97
48003;BMP280;33768;48.578;11.574;2023-04-24T04:35:05;95503.19;;;9.97
48003;BMP280;33768;48.578;11.574;2023-04-24T04:38:10;95504.63;;;9.98
48003;BMP280;33768;48.578;11.574;2023-04-24T04:41:26;95503.38;;;9.99
48003;BMP280;33768;48.578;11.574;2023-04-24T04:44:31;95511.56;;;9.99
48003;BMP280;33768;48.578;11.574;2023-04-24T04:47:36;95511.56;;;9.99
48003;BMP280;33768;48.578;11.574;2023-04-24T04:50:40;95518.47;;;9.99
48003;BMP280;33768;48.578;11.574;2023-04-24T04:53:45;95530.47;;;10.04
48003;BMP280;33768;48.578;11.574;2023-04-24T04:56:50;95525.22;;;10.06
48003;BMP280;33768;48.578;11.574;2023-04-24T04:59:54;95529.38;;;10.07
48003;BMP280;33768;48.578;11.574;2023-04-24T05:03:12;95532.31;;;10.09
48003;BMP280;33768;48.578;11.574;2023-04-24T05:06:17;95536.47;;;10.10
48003;BMP280;33768;48.578;11.574;2023-04-24T05:09:23;95537.38;;;10.12
48003;BMP280;33768;48.578;11.574;2023-04-24T05:12:31;95545.03;;;10.14
48003;BMP280;33768;48.578;11.574;2023-04-24T05:15:36;95539.59;;;10.14
48003;BMP280;33768;48.578;11.574;2023-04-24T05:18:40;95547.75;;;10.14
48003;BMP280;33768;48.578;11.574;2023-04-24T05:21:46;95553.56;;;10.18
48003;BMP280;33768;48.578;11.574;2023-04-24T05:24:50;95553.97;;;10.22
48003;BMP280;33768;48.578;11.574;2023-04-24T05:28:12;95552.88;;;10.25
48003;BMP280;33768;48.578;11.574;2023-04-24T05:31:16;95545.44;;;10.47
48003;BMP280;33768;48.578;11.574;2023-04-24T05:34:22;95554.53;;;10.50
48003;BMP280;33768;48.578;11.574;2023-04-24T05:37:30;95560.91;;;10.45
48003;BMP280;33768;48.578;11.574;2023-04-24T05:40:34;95554.00;;;10.44
48003;BMP280;33768;48.578;11.574;2023-04-24T05:43:38;95548.53;;;10.44
48003;BMP280;33768;48.578;11.574;2023-04-24T05:46:43;95546.00;;;10.46
48003;BMP280;33768;48.578;11.574;2023-04-24T05:49:49;95549.81;;;10.50
48003;BMP280;33768;48.578;11.574;2023-04-24T05:52:53;95556.19;;;10.53
48003;BMP280;33768;48.578;11.574;2023-04-24T05:56:03;95555.47;;;10.67
48003;BMP280;33768;48.578;11.574;2023-04-24T05:59:08;95567.66;;;10.81
48003;BMP280;33768;48.578;11.574;2023-04-24T06:02:13;95561.66;;;10.90
48003;BMP280;33768;48.578;11.574;2023-04-24T06:05:17;95573.28;;;10.97
48003;BMP280;33768;48.578;11.574;2023-04-24T06:08:22;95571.47;;;11.07
48003;BMP280;33768;48.578;11.574;2023-04-24T06:11:27;95572.19;;;11.15
48003;BMP280;33768;48.578;11.574;2023-04-24T06:14:31;95573.28;;;11.20
48003;BMP280;33768;48.578;11.574;2023-04-24T06:18:10;95582.72;;;11.26
48003;BMP280;33768;48.578;11.574;2023-04-24T06:21:16;95573.25;;;11.34
48003;BMP280;33768;48.578;11.574;2023-04-24T06:24:20;95576.31;;;11.38
48003;BMP280;33768;48.578;11.574;2023-04-24T06:27:24;95586.00;;;11.39
48003;BMP280;33768;48.578;11.574;2023-04-24T06:30:28;95579.78;;;11.39
48003;BMP280;33768;48.578;11.574;2023-04-24T06:33:33;95582.34;;;11.37
48003;BMP280;33768;48.578;11.574;2023-04-24T06:36:37;95580.72;;;11.34
48003;BMP280;33768;48.578;11.574;2023-04-24T06:39:41;95586.34;;;11.36
48003;BMP280;33768;48.578;11.574;2023-04-24T06:42:46;95583.25;;;11.39
48003;BMP280;33768;48.578;11.574;2023-04-24T06:45:50;95571.59;;;11.46
48003;BMP280;33768;48.578;11.574;2023-04-24T06:48:54;95583.25;;;11.54
48003;BMP280;33768;48.578;11.574;2023-04-24T06:52:01;95574.00;;;11.42
48003;BMP280;33768;48.578;11.574;2023-04-24T06:55:06;95586.94;;;11.42
48003;BMP280;33768;48.578;11.574;2023-04-24T06:58:11;95586.72;;;11.40
48003;BMP280;33768;48.578;11.574;2023-04-24T07:01:15;95582.19;;;11.42
48003;BMP280;33768;48.578;11.574;2023-04-24T07:04:19;95586.72;;;11.40
48003;BMP280;33768;48.578;11.574;2023-04-24T07:07:23;95598.38;;;11.48
48003;BMP280;33768;48.578;11.574;2023-04-24T07:10:27;95586.53;;;11.53
48003;BMP280;33768;48.578;11.574;2023-04-24T07:13:32;95597.56;;;11.77
48003;BMP280;33768;48.578;11.574;2023-04-24T07:16:36;95591.69;;;11.95
48003;BMP280;33768;48.578;11.574;2023-04-24T07:19:40;95593.06;;;12.11
48003;BMP280;33768;48.578;11.574;2023-04-24T07:22:44;95588.66;;;12.22
48003;BMP280;33768;48.578;11.574;2023-04-24T07:25:48;95601.38;;;12.27
48003;BMP280;33768;48.578;11.574;2023-04-24T07:28:52;95602.84;;;12.28
48003;BMP280;33768;48.578;11.574;2023-04-24T07:31:56;95602.72;;;12.50
48003;BMP280;33768;48.578;11.574;2023-04-24T07:35:00;95593.53;;;12.63
48003;BMP280;33768;48.578;11.574;2023-04-24T07:38:04;95599.59;;;12.85
48003;BMP280;33768;48.578;11.574;2023-04-24T07:41:09;95599.09;;;13.04
48003;BMP280;33768;48.578;11.574;2023-04-24T07:44:13;95608.69;;;13.12
48003;BMP280;33768;48.578;11.574;2023-04-24T07:47:17;95610.94;;;13.06
48003;BMP280;33768;48.578;11.574;2023-04-24T07:50:21;95610.16;;;12.89
48003;BMP280;33768;48.578;11.574;2023-04-24T07:53:25;95626.00;;;12.59
48003;BMP280;33768;48.578;11.574;2023-04-24T07:56:29;95623.25;;;12.35
48003;BMP280;33768;48.578;11.574;2023-04-24T07:59:34;95623.00;;;12.01
48003;BMP280;33768;48.578;11.574;2023-04-24T08:02:38;95628.72;;;11.81
48003;BMP280;33768;48.578;11.574;2023-04-24T08:05:42;95651.19;;;11.65
48003;BMP280;33768;48.578;11.574;2023-04-24T08:08:46;95664.31;;;11.22
48003;BMP280;33768;48.578;11.574;2023-04-24T08:11:51;95674.47;;;10.77
48003;BMP280;33768;48.578;11.574;2023-04-24T08:14:55;95688.88;;;10.28
48003;BMP280;33768;48.578;11.574;2023-04-24T08:17:59;95694.47;;;9.88
48003;BMP280;33768;48.578;11.574;2023-04-24T08:21:03;95688.25;;;9.52
48003;BMP280;33768;48.578;11.574;2023-04-24T08:24:08;95704.22;;;9.48
48003;BMP280;33768;48.578;11.574;2023-04-24T08:27:12;95696.34;;;9.17
48003;BMP280;33768;48.578;11.574;2023-04-24T08:30:16;95688.78;;;9.03
48003;BMP280;33768;48.578;11.574;2023-04-24T08:33:23;95697.00;;;9.10
48003;BMP280;33768;48.578;11.574;2023-04-24T08:36:27;95688.97;;;9.25
48003;BMP280;33768;48.578;11.574;2023-04-24T08:39:31;95691.56;;;9.58
48003;BMP280;33768;48.578;11.574;2023-04-24T08:42:37;95680.94;;;10.02
48003;BMP280;33768;48.578;11.574;2023-04-24T08:45:41;95678.44;;;10.62
48003;BMP280;33768;48.578;11.574;2023-04-24T08:48:45;95679.78;;;11.05
48003;BMP280;33768;48.578;11.574;2023-04-24T08:51:50;95676.69;;;11.38
48003;BMP280;33768;48.578;11.574;2023-04-24T08:54:56;95682.84;;;11.90
48003;BMP280;33768;48.578;11.574;2023-04-24T08:58:01;95681.06;;;12.78
48003;BMP280;33768;48.578;11.574;2023-04-24T09:01:06;95685.16;;;13.42
48003;BMP280;33768;48.578;11.574;2023-04-24T09:04:12;95680.53;;;13.27
48003;BMP280;33768;48.578;11.574;2023-04-24T09:07:19;95672.34;;;14.35
48003;BMP280;33768;48.578;11.574;2023-04-24T09:10:24;95680.31;;;14.57
48003;BMP280;33768;48.578;11.574;2023-04-24T09:13:28;95679.38;;;14.29
48003;BMP280;33768;48.578;11.574;2023-04-24T09:16:33;95673.34;;;14.30
48003;BMP280;33768;48.578;11.574;2023-04-24T09:19:37;95680.19;;;14.38
48003;BMP280;33768;48.578;11.574;2023-04-24T09:22:42;95675.09;;;14.18
48003;BMP280;33768;48.578;11.574;2023-04-24T09:25:54;95677.22;;;14.27
48003;BMP280;33768;48.578;11.574;2023-04-24T09:28:59;95674.03;;;14.47
48003;BMP280;33768;48.578;11.574;2023-04-24T09:32:18;95674.78;;;14.31
48003;BMP280;33768;48.578;11.574;2023-04-24T09:35:25;95683.31;;;14.52
48003;BMP280;33768;48.578;11.574;2023-04-24T09:38:36;95700.69;;;14.21
48003;BMP280;33768;48.578;11.574;2023-04-24T09:41:51;95687.03;;;13.97
48003;BMP280;33768;48.578;11.574;2023-04-24T09:44:55;95684.63;;;14.01
48003;BMP280;33768;48.578;11.574;2023-04-24T09:47:59;95688.78;;;13.85
48003;BMP280;33768;48.578;11.574;2023-04-24T09:51:05;95696.53;;;13.96
48003;BMP280;33768;48.578;11.574;2023-04-24T09:54:16;95691.06;;;13.79
48003;BMP280;33768;48.578;11.574;2023-04-24T09:57:21;95697.81;;;13.37
48003;BMP280;33768;48.578;11.574;2023-04-24T10:00:30;95696.91;;;13.59
48003;BMP280;33768;48.578;11.574;2023-04-24T10:03:35;95694.69;;;13.81
48003;BMP280;33768;48.578;11.574;2023-04-24T10:06:42;95690.09;;;13.84
48003;BMP280;33768;48.578;11.574;2023-04-24T10:09:47;95687.28;;;13.91
48003;BMP280;33768;48.578;11.574;2023-04-24T10:12:51;95681.03;;;14.74
48003;BMP280;33768;48.578;11.574;2023-04-24T10:15:56;95671.66;;;15.39
48003;BMP280;33768;48.578;11.574;2023-04-24T10:19:04;95681.66;;;15.98
48003;BMP280;33768;48.578;11.574;2023-04-24T10:22:08;95663.13;;;16.45
48003;BMP280;33768;48.578;11.574;2023-04-24T10:25:13;95669.38;;;16.46
48003;BMP280;33768;48.578;11.574;2023-04-24T10:28:18;95667.88;;;16.07
48003;BMP280;33768;48.578;11.574;2023-04-24T10:31:23;95664.22;;;15.77
48003;BMP280;33768;48.578;11.574;2023-04-24T10:34:28;95664.81;;;15.75
48003;BMP280;33768;48.578;11.574;2023-04-24T10:37:39;95669.25;;;15.62
48003;BMP280;33768;48.578;11.574;2023-04-24T10:40:44;95664.13;;;15.94
48003;BMP280;33768;48.578;11.574;2023-04-24T10:44:10;95666.00;;;15.91
48003;BMP280;33768;48.578;11.574;2023-04-24T10:47:14;95667.13;;;15.25
48003;BMP280;33768;48.578;11.574;2023-04-24T10:50:18;95696.28;;;14.68
48003;BMP280;33768;48.578;11.574;2023-04-24T10:53:25;95694.19;;;14.16
48003;BMP280;33768;48.578;11.574;2023-04-24T10:56:32;95715.50;;;13.44
48003;BMP280;33768;48.578;11.574;2023-04-24T10:59:36;95729.38;;;12.82
48003;BMP280;33768;48.578;11.574;2023-04-24T11:02:41;95734.59;;;12.56
48003;BMP280;33768;48.578;11.574;2023-04-24T11:09:10;95722.53;;;13.06
48003;BMP280;33768;48.578;11.574;2023-04-24T11:12:19;95717.78;;;13.54
48003;BMP280;33768;48.578;11.574;2023-04-24T11:15:24;95725.91;;;13.86
48003;BMP280;33768;48.578;11.574;2023-04-24T11:18:37;95719.56;;;14.34
48003;BMP280;33768;48.578;11.574;2023-04-24T11:21:46;95713.31;;;15.71
48003;BMP280;33768;48.578;11.574;2023-04-24T11:24:53;95713.00;;;16.30
48003;BMP280;33768;48.578;11.574;2023-04-24T11:28:03;95702.13;;;16.32
48003;BMP280;33768;48.578;11.574;2023-04-24T11:31:37;95704.72;;;16.77
48003;BMP280;33768;48.578;11.574;2023-04-24T11:34:45;95707.44;;;17.84
48003;BMP280;33768;48.578;11.574;2023-04-24T11:37:51;95701.34;;;17.46
48003;BMP280;33768;48.578;11.574;2023-04-24T11:40:55;95710.69;;;16.55
48003;BMP280;33768;48.578;11.574;2023-04-24T11:43:59;95715.97;;;15.88
48003;BMP280;33768;48.578;11.574;2023-04-24T11:47:08;95714.75;;;15.36
48003;BMP280;33768;48.578;11.574;2023-04-24T11:50:14;95709.53;;;15.05
48003;BMP280;33768;48.578;11.574;2023-04-24T11:53:20;95710.03;;;15.11
48003;BMP280;33768;48.578;11.574;2023-04-24T11:56:25;95710.75;;;15.11
48003;BMP280;33768;48.578;11.574;2023-04-24T11:59:29;95709.22;;;15.01
48003;BMP280;33768;48.578;11.574;2023-04-24T12:02:33;95709.63;;;14.98
48003;BMP280;33768;48.578;11.574;2023-04-24T12:05:38;95700.28;;;14.84
48003;BMP280;33768;48.578;11.574;2023-04-24T12:08:45;95698.94;;;14.75
48003;BMP280;33768;48.578;11.574;2023-04-24T12:11:54;95710.41;;;15.07
48003;BMP280;33768;48.578;11.574;2023-04-24T12:15:01;95706.03;;;16.76
48003;BMP280;33768;48.578;11.574;2023-04-24T12:18:12;95690.59;;;18.10
48003;BMP280;33768;48.578;11.574;2023-04-24T12:21:23;95680.66;;;18.69
48003;BMP280;33768;48.578;11.574;2023-04-24T12:24:30;95673.88;;;19.47
48003;BMP280;33768;48.578;11.574;2023-04-24T12:27:34;95703.72;;;18.42
48003;BMP280;33768;48.578;11.574;2023-04-24T12:30:47;95709.38;;;17.42
48003;BMP280;33768;48.578;11.574;2023-04-24T12:33:53;95712.13;;;16.75
48003;BMP280;33768;48.578;11.574;2023-04-24T12:37:10;95709.22;;;16.54
48003;BMP280;33768;48.578;11.574;2023-04-24T12:40:14;95714.44;;;16.22
48003;BMP280;33768;48.578;11.574;2023-04-24T12:43:20;95721.34;;;15.50
48003;BMP280;33768;48.578;11.574;2023-04-24T12:46:24;95710.56;;;14.83
48003;BMP280;33768;48.578;11.574;2023-04-24T12:49:30;95722.34;;;14.76
48003;BMP280;33768;48.578;11.574;2023-04-24T12:52:34;95724.44;;;14.59
48003;BMP280;33768;48.578;11.574;2023-04-24T12:55:38;95736.59;;;14.66
48003;BMP280;33768;48.578;11.574;2023-04-24T12:58:42;95723.78;;;14.94
48003;BMP280;33768;48.578;11.574;2023-04-24T13:01:46;95720.66;;;16.13
48003;BMP280;33768;48.578;11.574;2023-04-24T13:04:51;95720.66;;;17.46
48003;BMP280;33768;48.578;11.574;2023-04-24T13:07:55;95738.59;;;17.26
48003;BMP280;33768;48.578;11.574;2023-04-24T13:10:59;95736.63;;;16.61
48003;BMP280;33768;48.578;11.574;2023-04-24T13:14:03;95738.94;;;16.18
48003;BMP280;33768;48.578;11.574;2023-04-24T13:17:07;95729.66;;;16.42
48003;BMP280;33768;48.578;11.574;2023-04-24T13:20:11;95732.06;;;17.03
48003;BMP280;33768;48.578;11.574;2023-04-24T13:23:15;95745.25;;;17.33
48003;BMP280;33768;48.578;11.574;2023-04-24T13:26:20;95732.28;;;17.45
48003;BMP280;33768;48.578;11.574;2023-04-24T13:29:24;95735.16;;;16.60
48003;BMP280;33768;48.578;11.574;2023-04-24T13:32:28;95740.72;;;15.88
48003;BMP280;33768;48.578;11.574;2023-04-24T13:35:33;95755.38;;;15.29
48003;BMP280;33768;48.578;11.574;2023-04-24T13:38:37;95749.44;;;15.06
48003;BMP280;33768;48.578;11.574;2023-04-24T13:41:41;95752.59;;;14.60
48003;BMP280;33768;48.578;11.574;2023-04-24T13:44:45;95750.34;;;14.32
48003;BMP280;33768;48.578;11.574;2023-04-24T13:47:49;95763.91;;;14.47
48003;BMP280;33768;48.578;11.574;2023-04-24T13:50:53;95750.38;;;14.49
48003;BMP280;33768;48.578;11.574;2023-04-24T13:53:57;95756.72;;;14.68
48003;BMP280;33768;48.578;11.574;2023-04-24T13:57:01;95753.53;;;15.31
48003;BMP280;33768;48.578;11.574;2023-04-24T14:00:07;95743.63;;;15.19
48003;BMP280;33768;48.578;11.574;2023-04-24T14:03:14;95756.78;;;14.77
48003;BMP280;33768;48.578;11.574;2023-04-24T14:06:19;95752.69;;;14.36
48003;BMP280;33768;48.578;11.574;2023-04-24T14:09:23;95754.47;;;14.24
48003;BMP280;33768;48.578;11.574;2023-04-24T14:12:27;95757.69;;;14.13
48003;BMP280;33768;48.578;11.574;2023-04-24T14:15:31;95756.97;;;14.29
48003;BMP280;33768;48.578;11.574;2023-04-24T14:18:36;95754.78;;;14.61
48003;BMP280;33768;48.578;11.574;2023-04-24T14:21:40;95750.88;;;15.24
48003;BMP280;33768;48.578;11.574;2023-04-24T14:24:44;95754.28;;;15.41
48003;BMP280;33768;48.578;11.574;2023-04-24T14:27:48;95763.00;;;15.21
48003;BMP280;33768;48.578;11.574;2023-04-24T14:30:52;95759.00;;;15.31
48003;BMP280;33768;48.578;11.574;2023-04-24T14:33:57;95763.78;;;15.31
48003;BMP280;33768;48.578;11.574;2023-04-24T14:37:01;95764.34;;;15.03
48003;BMP280;33768;48.578;11.574;2023-04-24T14:40:06;95774.53;;;14.93
48003;BMP280;33768;48.578;11.574;2023-04-24T14:43:11;95767.53;;;14.66
48003;BMP280;33768;48.578;11.574;2023-04-24T14:46:16;95770.03;;;14.71
48003;BMP280;33768;48.578;11.574;2023-04-24T14:49:20;95770.03;;;14.71
48003;BMP280;33768;48.578;11.574;2023-04-24T14:52:24;95767.59;;;14.75
48003;BMP280;33768;48.578;11.574;2023-04-24T14:55:28;95758.47;;;14.56
48003;BMP280;33768;48.578;11.574;2023-04-24T14:58:33;95765.38;;;14.48
48003;BMP280;33768;48.578;11.574;2023-04-24T15:01:37;95764.53;;;14.71
48003;BMP280;33768;48.578;11.574;2023-04-24T15:04:41;95769.03;;;14.93
48003;BMP280;33768;48.578;11.574;2023-04-24T15:07:45;95787.03;;;14.44
48003;BMP280;33768;48.578;11.574;2023-04-24T15:10:49;95786.28;;;14.27
48003;BMP280;33768;48.578;11.574;2023-04-24T15:13:53;95793.00;;;14.50
48003;BMP280;33768;48.578;11.574;2023-04-24T15:16:57;95785.84;;;14.97
48003;BMP280;33768;48.578;11.574;2023-04-24T15:20:02;95788.88;;;15.44
48003;BMP280;33768;48.578;11.574;2023-04-24T15:23:08;95805.06;;;15.66
48003;BMP280;33768;48.578;11.574;2023-04-24T15:26:12;95804.19;;;15.64
48003;BMP280;33768;48.578;11.574;2023-04-24T15:29:16;95802.47;;;15.42
48003;BMP280;33768;48.578;11.574;2023-04-24T15:32:21;95793.56;;;15.86
48003;BMP280;33768;48.578;11.574;2023-04-24T15:35:25;95803.91;;;15.95
48003;BMP280;33768;48.578;11.574;2023-04-24T15:38:29;95794.75;;;15.57
48003;BMP280;33768;48.578;11.574;2023-04-24T15:41:33;95804.09;;;15.19
48003;BMP280;33768;48.578;11.574;2023-04-24T15:44:37;95811.38;;;14.90
48003;BMP280;33768;48.578;11.574;2023-04-24T15:47:41;95802.75;;;14.60
48003;BMP280;33768;48.578;11.574;2023-04-24T15:50:45;95804.75;;;14.43
48003;BMP280;33768;48.578;11.574;2023-04-24T15:53:49;95814.91;;;14.16
48003;BMP280;33768;48.578;11.574;2023-04-24T15:56:54;95814.09;;;14.07
48003;BMP280;33768;48.578;11.574;2023-04-24T15:59:58;95815.00;;;13.77
48003;BMP280;33768;48.578;11.574;2023-04-24T16:03:02;95812.56;;;13.65
48003;BMP280;33768;48.578;11.574;2023-04-24T16:06:07;95825.81;;;13.51
48003;BMP280;33768;48.578;11.574;2023-04-24T16:09:11;95818.13;;;13.50
48003;BMP280;33768;48.578;11.574;2023-04-24T16:12:16;95823.03;;;13.27
48003;BMP280;33768;48.578;11.574;2023-04-24T16:15:20;95825.03;;;13.27
48003;BMP280;33768;48.578;11.574;2023-04-24T16:18:25;95834.75;;;13.20
48003;BMP280;33768;48.578;11.574;2023-04-24T16:21:29;95827.44;;;12.84
48003;BMP280;33768;48.578;11.574;2023-04-24T16:24:34;95829.47;;;12.76
48003;BMP280;33768;48.578;11.574;2023-04-24T16:27:39;95830.91;;;12.77
48003;BMP280;33768;48.578;11.574;2023-04-24T16:30:43;95824.56;;;12.60
48003;BMP280;33768;48.578;11.574;2023-04-24T16:33:47;95830.19;;;12.69
48003;BMP280;33768;48.578;11.574;2023-04-24T16:36:51;95823.97;;;12.76
48003;BMP280;33768;48.578;11.574;2023-04-24T16:39:55;95815.94;;;12.71
48003;BMP280;33768;48.578;11.574;2023-04-24T16:42:59;95830.78;;;12.53
48003;BMP280;33768;48.578;11.574;2023-04-24T16:46:03;95832.28;;;12.24
48003;BMP280;33768;48.578;11.574;2023-04-24T16:49:07;95840.31;;;12.22
48003;BMP280;33768;48.578;11.574;2023-04-24T16:52:12;95826.09;;;12.17
48003;BMP280;33768;48.578;11.574;2023-04-24T16:55:16;95838.50;;;12.25
48003;BMP280;33768;48.578;11.574;2023-04-24T16:58:20;95836.63;;;12.42
48003;BMP280;33768;48.578;11.574;2023-04-24T17:01:24;95850.13;;;12.55
48003;BMP280;33768;48.578;11.574;2023-04-24T17:04:28;95843.38;;;12.49
48003;BMP280;33768;48.578;11.574;2023-04-24T17:07:33;95846.88;;;12.19
48003;BMP280;33768;48.578;11.574;2023-04-24T17:10:37;95847.44;;;11.96
48003;BMP280;33768;48.578;11.574;2023-04-24T17:13:41;95855.09;;;11.68
48003;BMP280;33768;48.578;11.574;2023-04-24T17:16:45;95869.81;;;11.50
48003;BMP280;33768;48.578;11.574;2023-04-24T17:19:49;95861.78;;;11.45
48003;BMP280;33768;48.578;11.574;2023-04-24T17:22:56;95862.34;;;11.51
48003;BMP280;33768;48.578;11.574;2023-04-24T17:26:01;95860.88;;;11.42
48003;BMP280;33768;48.578;11.574;2023-04-24T17:29:05;95859.38;;;11.34
48003;BMP280;33768;48.578;11.574;2023-04-24T17:32:09;95857.72;;;11.31
48003;BMP280;33768;48.578;11.574;2023-04-24T17:35:13;95866.97;;;11.21